sensor_id;sensor_type;location;lat;lon;timestamp;temperature;humidity
22984;DHT22;11658;48.908;9.140;2022-11-25T04:01:45;3.80;99.90
22984;DHT22;11658;48.908;9.140;2022-11-25T04:04:11;3.00;99.90
22984;DHT22;11658;48.908;9.140;2022-11-25T04:06:37;3.50;99.90
22984;DHT22;11658;48.908;9.140;2022-11-25T04:09:06;4.60;99.90
22984;DHT22;11658;48.908;9.140;2022-11-25T04:11:32;3.90;99.90
22984;DHT22;11658;48.908;9.140;2022-11-25T04:14:17;6.00;99.90
22984;DHT22;11658;48.908;9.140;2022-11-25T04:16:45;4.00;99.90
22984;DHT22;11658;48.908;9.140;2022-11-25T04:19:11;3.50;99.90
22984;DHT22;11658;48.908;9.140;2022-11-25T04:21:37;4.00;99.90
22984;DHT22;11658;48.908;9.140;2022-11-25T04:24:05;6.00;99.90
22984;DHT22;11658;48.908;9.140;2022-11-25T04:26:33;4.60;99.90
22984;DHT22;11658;48.908;9.140;2022-11-25T04:28:59;3.80;99.90
22984;DHT22;11658;48.908;9.140;2022-11-25T04:31:52;2.60;99.90
22984;DHT22;11658;48.908;9.140;2022-11-25T04:34:39;4.80;99.90
22984;DHT22;11658;48.908;9.140;2022-11-25T04:37:14;5.70;99.90
22984;DHT22;11658;48.908;9.140;2022-11-25T04:39:50;4.00;99.90
22984;DHT22;11658;48.908;9.140;2022-11-25T04:42:34;4.10;99.90
22984;DHT22;11658;48.908;9.140;2022-11-25T04:45:36;4.90;99.90
22984;DHT22;11658;48.908;9.140;2022-11-25T04:48:31;4.30;99.90
22984;DHT22;11658;48.908;9.140;2022-11-25T04:51:18;4.70;99.90
22984;DHT22;11658;48.908;9.140;2022-11-25T04:54:04;4.10;99.90
22984;DHT22;11658;48.908;9.140;2022-11-25T04:56:45;1.90;99.90
22984;DHT22;11658;48.908;9.140;2022-11-25T04:59:26;5.80;99.90
22984;DHT22;11658;48.908;9.140;2022-11-25T05:02:29;7.90;99.90
22984;DHT22;11658;48.908;9.140;2022-11-25T05:04:59;4.30;99.90
22984;DHT22;11658;48.908;9.140;2022-11-25T05:07:45;5.20;99.90
22984;DHT22;11658;48.908;9.140;2022-11-25T05:10:12;4.80;99.90
22984;DHT22;11658;48.908;9.140;2022-11-25T05:12:40;4.10;99.90
22984;DHT22;11658;48.908;9.140;2022-11-25T05:15:17;3.80;99.90
22984;DHT22;11658;48.908;9.140;2022-11-25T05:18:00;4.10;99.90
22984;DHT22;11658;48.908;9.140;2022-11-25T05:23:45;3.90;99.90
22984;DHT22;11658;48.908;9.140;2022-11-25T05:26:13;3.70;99.90
22984;DHT22;11658;48.908;9.140;2022-11-25T05:28:39;4.10;99.90
22984;DHT22;11658;48.908;9.140;2022-11-25T05:31:05;4.00;99.90
22984;DHT22;11658;48.908;9.140;2022-11-25T05:33:30;4.00;99.90
22984;DHT22;11658;48.908;9.140;2022-11-25T05:35:58;4.00;99.90
22984;DHT22;11658;48.908;9.140;2022-11-25T05:38:25;3.90;99.90
22984;DHT22;11658;48.908;9.140;2022-11-25T05:40:51;3.90;99.90
22984;DHT22;11658;48.908;9.140;2022-11-25T05:43:16;3.90;99.90
22984;DHT22;11658;48.908;9.140;2022-11-25T05:45:42;3.90;99.90
22984;DHT22;11658;48.908;9.140;2022-11-25T05:48:08;3.90;99.90
22984;DHT22;11658;48.908;9.140;2022-11-25T05:50:34;3.90;99.90
22984;DHT22;11658;48.908;9.140;2022-11-25T05:52:59;3.90;99.90
22984;DHT22;11658;48.908;9.140;2022-11-25T05:55:25;3.80;99.90
22984;DHT22;11658;48.908;9.140;2022-11-25T05:57:50;3.80;99.90
22984;DHT22;11658;48.908;9.140;2022-11-25T06:00:16;3.80;99.90
22984;DHT22;11658;48.908;9.140;2022-11-25T06:02:41;3.80;99.90
22984;DHT22;11658;48.908;9.140;2022-11-25T06:05:07;3.80;99.90
22984;DHT22;11658;48.908;9.140;2022-11-25T06:07:33;3.80;99.90
22984;DHT22;11658;48.908;9.140;2022-11-25T06:09:58;3.70;99.90
22984;DHT22;11658;48.908;9.140;2022-11-25T06:12:24;3.70;99.90
22984;DHT22;11658;48.908;9.140;2022-11-25T06:14:50;3.70;99.90
22984;DHT22;11658;48.908;9.140;2022-11-25T06:17:15;3.70;99.90
22984;DHT22;11658;48.908;9.140;2022-11-25T06:19:41;3.70;99.90
22984;DHT22;11658;48.908;9.140;2022-11-25T06:22:07;3.80;99.90
22984;DHT22;11658;48.908;9.140;2022-11-25T06:24:32;3.70;99.90
22984;DHT22;11658;48.908;9.140;2022-11-25T06:26:58;3.70;99.90
22984;DHT22;11658;48.908;9.140;2022-11-25T06:29:24;3.60;99.90
22984;DHT22;11658;48.908;9.140;2022-11-25T06:31:50;3.60;99.90
22984;DHT22;11658;48.908;9.140;2022-11-25T06:34:16;3.60;99.90
22984;DHT22;11658;48.908;9.140;2022-11-25T06:36:41;3.50;99.90
22984;DHT22;11658;48.908;9.140;2022-11-25T06:39:07;3.50;99.90
22984;DHT22;11658;48.908;9.140;2022-11-25T06:41:33;3.50;99.90
22984;DHT22;11658;48.908;9.140;2022-11-25T06:43:59;3.50;99.90
22984;DHT22;11658;48.908;9.140;2022-11-25T06:46:24;3.50;99.90
22984;DHT22;11658;48.908;9.140;2022-11-25T06:48:51;3.60;99.90
22984;DHT22;11658;48.908;9.140;2022-11-25T06:51:16;3.70;99.90
22984;DHT22;11658;48.908;9.140;2022-11-25T06:53:42;3.70;99.90
22984;DHT22;11658;48.908;9.140;2022-11-25T06:56:12;3.80;99.90
22984;DHT22;11658;48.908;9.140;2022-11-25T06:58:38;3.80;99.90
22984;DHT22;11658;48.908;9.140;2022-11-25T07:01:25;3.90;99.90
22984;DHT22;11658;48.908;9.140;2022-11-25T07:03:53;4.00;99.90
22984;DHT22;11658;48.908;9.140;2022-11-25T07:06:20;4.00;99.90
22984;DHT22;11658;48.908;9.140;2022-11-25T07:08:46;4.00;99.90
22984;DHT22;11658;48.908;9.140;2022-11-25T07:11:31;4.00;99.90
22984;DHT22;11658;48.908;9.140;2022-11-25T07:14:03;4.00;99.90
22984;DHT22;11658;48.908;9.140;2022-11-25T07:16:30;4.00;99.90
22984;DHT22;11658;48.908;9.140;2022-11-25T07:19:00;4.00;99.90
22984;DHT22;11658;48.908;9.140;2022-11-25T07:21:27;3.90;99.90
22984;DHT22;11658;48.908;9.140;2022-11-25T07:23:54;3.90;99.90
22984;DHT22;11658;48.908;9.140;2022-11-25T07:26:25;4.00;99.90
22984;DHT22;11658;48.908;9.140;2022-11-25T07:28:53;4.10;99.90
22984;DHT22;11658;48.908;9.140;2022-11-25T07:31:21;4.20;99.90
22984;DHT22;11658;48.908;9.140;2022-11-25T07:33:50;4.30;99.90
22984;DHT22;11658;48.908;9.140;2022-11-25T07:36:16;4.40;99.90
22984;DHT22;11658;48.908;9.140;2022-11-25T07:38:41;4.40;99.90
22984;DHT22;11658;48.908;9.140;2022-11-25T07:43:34;4.60;99.90
22984;DHT22;11658;48.908;9.140;2022-11-25T07:48:35;5.00;99.90
22984;DHT22;11658;48.908;9.140;2022-11-25T07:51:00;5.10;99.90
22984;DHT22;11658;48.908;9.140;2022-11-25T07:53:26;5.20;99.90
22984;DHT22;11658;48.908;9.140;2022-11-25T07:55:51;5.30;99.90
22984;DHT22;11658;48.908;9.140;2022-11-25T07:58:17;5.30;99.90
22984;DHT22;11658;48.908;9.140;2022-11-25T08:00:42;5.30;99.90
22984;DHT22;11658;48.908;9.140;2022-11-25T08:03:08;5.30;99.90
22984;DHT22;11658;48.908;9.140;2022-11-25T08:05:34;5.20;99.90
22984;DHT22;11658;48.908;9.140;2022-11-25T08:07:59;5.30;99.90
22984;DHT22;11658;48.908;9.140;2022-11-25T08:10:25;5.40;99.90
22984;DHT22;11658;48.908;9.140;2022-11-25T08:12:50;5.40;99.90
22984;DHT22;11658;48.908;9.140;2022-11-25T08:15:16;5.60;99.90
22984;DHT22;11658;48.908;9.140;2022-11-25T08:17:41;5.70;99.90
22984;DHT22;11658;48.908;9.140;2022-11-25T08:20:07;5.80;99.90
22984;DHT22;11658;48.908;9.140;2022-11-25T08:22:33;5.90;99.90
22984;DHT22;11658;48.908;9.140;2022-11-25T08:24:58;5.90;99.90
22984;DHT22;11658;48.908;9.140;2022-11-25T08:27:24;5.90;99.90
22984;DHT22;11658;48.908;9.140;2022-11-25T08:29:49;5.90;99.90
22984;DHT22;11658;48.908;9.140;2022-11-25T08:32:15;5.80;99.90
22984;DHT22;11658;48.908;9.140;2022-11-25T08:34:41;5.80;99.90
22984;DHT22;11658;48.908;9.140;2022-11-25T08:37:06;5.90;99.90
22984;DHT22;11658;48.908;9.140;2022-11-25T08:39:32;6.00;99.90
22984;DHT22;11658;48.908;9.140;2022-11-25T08:41:58;6.00;99.90
22984;DHT22;11658;48.908;9.140;2022-11-25T08:44:26;6.10;99.90
22984;DHT22;11658;48.908;9.140;2022-11-25T08:46:53;6.20;99.90
22984;DHT22;11658;48.908;9.140;2022-11-25T08:49:18;6.30;99.90
22984;DHT22;11658;48.908;9.140;2022-11-25T08:51:44;6.20;99.90
22984;DHT22;11658;48.908;9.140;2022-11-25T08:54:10;6.30;99.90
22984;DHT22;11658;48.908;9.140;2022-11-25T08:56:35;6.30;99.90
22984;DHT22;11658;48.908;9.140;2022-11-25T08:59:01;6.30;99.90
22984;DHT22;11658;48.908;9.140;2022-11-25T09:01:27;6.20;99.90
22984;DHT22;11658;48.908;9.140;2022-11-25T09:03:55;6.20;99.90
22984;DHT22;11658;48.908;9.140;2022-11-25T09:06:21;6.30;99.90
22984;DHT22;11658;48.908;9.140;2022-11-25T09:08:47;6.50;99.90
22984;DHT22;11658;48.908;9.140;2022-11-25T09:11:13;6.70;99.90
22984;DHT22;11658;48.908;9.140;2022-11-25T09:13:39;7.10;99.90
22984;DHT22;11658;48.908;9.140;2022-11-25T09:16:05;7.60;99.90
22984;DHT22;11658;48.908;9.140;2022-11-25T09:18:31;7.90;99.90
22984;DHT22;11658;48.908;9.140;2022-11-25T09:20:58;8.20;99.90
22984;DHT22;11658;48.908;9.140;2022-11-25T09:23:25;8.60;99.90
22984;DHT22;11658;48.908;9.140;2022-11-25T09:25:52;8.90;99.90
22984;DHT22;11658;48.908;9.140;2022-11-25T09:28:19;9.10;99.90
22984;DHT22;11658;48.908;9.140;2022-11-25T09:30:44;9.20;99.90
22984;DHT22;11658;48.908;9.140;2022-11-25T09:33:10;9.20;99.90
22984;DHT22;11658;48.908;9.140;2022-11-25T09:35:36;9.30;99.90
22984;DHT22;11658;48.908;9.140;2022-11-25T09:38:01;9.00;99.90
22984;DHT22;11658;48.908;9.140;2022-11-25T09:43:47;8.80;99.90
22984;DHT22;11658;48.908;9.140;2022-11-25T09:52:22;8.60;99.90
22984;DHT22;11658;48.908;9.140;2022-11-25T09:55:08;8.60;99.90
22984;DHT22;11658;48.908;9.140;2022-11-25T09:57:50;8.70;99.90
22984;DHT22;11658;48.908;9.140;2022-11-25T10:00:20;8.80;99.90
22984;DHT22;11658;48.908;9.140;2022-11-25T10:05:46;9.10;99.90
22984;DHT22;11658;48.908;9.140;2022-11-25T10:08:21;9.00;99.90
22984;DHT22;11658;48.908;9.140;2022-11-25T10:10:54;9.00;99.90
22984;DHT22;11658;48.908;9.140;2022-11-25T10:13:31;9.20;99.90
22984;DHT22;11658;48.908;9.140;2022-11-25T10:16:00;9.30;99.90
22984;DHT22;11658;48.908;9.140;2022-11-25T10:18:42;9.40;99.90
22984;DHT22;11658;48.908;9.140;2022-11-25T10:21:10;9.60;99.90
22984;DHT22;11658;48.908;9.140;2022-11-25T10:23:39;9.80;99.90
22984;DHT22;11658;48.908;9.140;2022-11-25T10:26:12;9.70;99.90
22984;DHT22;11658;48.908;9.140;2022-11-25T10:28:40;9.70;99.90
22984;DHT22;11658;48.908;9.140;2022-11-25T10:31:20;9.70;99.90
22984;DHT22;11658;48.908;9.140;2022-11-25T10:33:50;9.70;99.90
22984;DHT22;11658;48.908;9.140;2022-11-25T10:36:26;9.80;99.90
22984;DHT22;11658;48.908;9.140;2022-11-25T10:44:34;9.70;99.90
22984;DHT22;11658;48.908;9.140;2022-11-25T10:53:14;10.00;99.90
22984;DHT22;11658;48.908;9.140;2022-11-25T10:56:00;10.00;99.90
22984;DHT22;11658;48.908;9.140;2022-11-25T10:58:37;10.10;99.90
22984;DHT22;11658;48.908;9.140;2022-11-25T11:01:23;10.10;99.90
22984;DHT22;11658;48.908;9.140;2022-11-25T11:04:05;10.10;99.90
22984;DHT22;11658;48.908;9.140;2022-11-25T11:06:40;9.90;99.90
22984;DHT22;11658;48.908;9.140;2022-11-25T11:09:08;9.40;99.90
22984;DHT22;11658;48.908;9.140;2022-11-25T11:11:51;9.20;99.90
22984;DHT22;11658;48.908;9.140;2022-11-25T11:14:19;9.10;99.90
22984;DHT22;11658;48.908;9.140;2022-11-25T11:16:52;8.90;99.90
22984;DHT22;11658;48.908;9.140;2022-11-25T11:19:27;8.80;99.90
22984;DHT22;11658;48.908;9.140;2022-11-25T11:21:54;8.70;99.90
22984;DHT22;11658;48.908;9.140;2022-11-25T11:24:32;8.60;99.90
22984;DHT22;11658;48.908;9.140;2022-11-25T11:29:27;8.20;99.90
22984;DHT22;11658;48.908;9.140;2022-11-25T11:31:58;8.00;99.90
22984;DHT22;11658;48.908;9.140;2022-11-25T11:37:50;7.60;99.90
22984;DHT22;11658;48.908;9.140;2022-11-25T11:43:38;7.80;99.90
22984;DHT22;11658;48.908;9.140;2022-11-25T11:46:31;8.00;99.90
22984;DHT22;11658;48.908;9.140;2022-11-25T11:49:25;8.00;99.90
22984;DHT22;11658;48.908;9.140;2022-11-25T11:54:45;8.30;99.90
22984;DHT22;11658;48.908;9.140;2022-11-25T11:57:43;8.30;99.90
22984;DHT22;11658;48.908;9.140;2022-11-25T12:00:16;8.40;99.90
22984;DHT22;11658;48.908;9.140;2022-11-25T12:05:30;8.30;99.90
22984;DHT22;11658;48.908;9.140;2022-11-25T12:10:55;8.40;99.90
22984;DHT22;11658;48.908;9.140;2022-11-25T12:13:52;8.40;99.90
22984;DHT22;11658;48.908;9.140;2022-11-25T12:17:00;8.30;99.90
22984;DHT22;11658;48.908;9.140;2022-11-25T12:22:02;8.40;99.90
22984;DHT22;11658;48.908;9.140;2022-11-25T12:27:16;8.50;99.90
22984;DHT22;11658;48.908;9.140;2022-11-25T12:29:48;8.30;99.90
22984;DHT22;11658;48.908;9.140;2022-11-25T12:35:24;8.30;99.90
22984;DHT22;11658;48.908;9.140;2022-11-25T12:43:06;8.00;99.90
22984;DHT22;11658;48.908;9.140;2022-11-25T12:45:33;8.10;99.90
22984;DHT22;11658;48.908;9.140;2022-11-25T12:47:59;8.10;99.90
22984;DHT22;11658;48.908;9.140;2022-11-25T12:50:54;8.10;99.90
22984;DHT22;11658;48.908;9.140;2022-11-25T12:53:46;8.00;99.90
22984;DHT22;11658;48.908;9.140;2022-11-25T12:59:19;8.10;99.90
22984;DHT22;11658;48.908;9.140;2022-11-25T13:07:21;8.30;99.90
22984;DHT22;11658;48.908;9.140;2022-11-25T13:15:47;8.60;99.90
22984;DHT22;11658;48.908;9.140;2022-11-25T13:18:16;8.70;99.90
22984;DHT22;11658;48.908;9.140;2022-11-25T13:20:48;8.60;99.90
22984;DHT22;11658;48.908;9.140;2022-11-25T13:25:48;8.40;99.90
22984;DHT22;11658;48.908;9.140;2022-11-25T13:28:37;8.40;99.90
22984;DHT22;11658;48.908;9.140;2022-11-25T13:36:16;8.70;99.90
22984;DHT22;11658;48.908;9.140;2022-11-25T13:41:23;8.70;99.90
22984;DHT22;11658;48.908;9.140;2022-11-25T13:44:21;8.60;99.90
22984;DHT22;11658;48.908;9.140;2022-11-25T13:46:50;8.50;99.90
22984;DHT22;11658;48.908;9.140;2022-11-25T13:49:33;8.50;99.90
22984;DHT22;11658;48.908;9.140;2022-11-25T13:54:49;8.50;99.90
22984;DHT22;11658;48.908;9.140;2022-11-25T13:57:20;8.60;99.90
22984;DHT22;11658;48.908;9.140;2022-11-25T14:02:46;8.90;99.90
22984;DHT22;11658;48.908;9.140;2022-11-25T14:05:38;9.00;99.90
22984;DHT22;11658;48.908;9.140;2022-11-25T14:08:28;9.00;99.90
22984;DHT22;11658;48.908;9.140;2022-11-25T14:27:38;9.10;99.90
22984;DHT22;11658;48.908;9.140;2022-11-25T14:30:09;9.20;99.90
22984;DHT22;11658;48.908;9.140;2022-11-25T14:35:20;9.10;99.90
22984;DHT22;11658;48.908;9.140;2022-11-25T14:40:27;9.10;99.90
22984;DHT22;11658;48.908;9.140;2022-11-25T14:43:03;9.10;99.90
22984;DHT22;11658;48.908;9.140;2022-11-25T14:45:34;9.10;99.90
22984;DHT22;11658;48.908;9.140;2022-11-25T14:48:26;9.00;99.90
22984;DHT22;11658;48.908;9.140;2022-11-25T14:50:59;9.00;99.90
22984;DHT22;11658;48.908;9.140;2022-11-25T14:53:26;9.00;99.90
22984;DHT22;11658;48.908;9.140;2022-11-25T14:55:53;9.00;99.90
22984;DHT22;11658;48.908;9.140;2022-11-25T14:58:22;9.00;99.90
22984;DHT22;11658;48.908;9.140;2022-11-25T15:03:24;8.90;99.90
22984;DHT22;11658;48.908;9.140;2022-11-25T15:05:54;8.90;99.90
22984;DHT22;11658;48.908;9.140;2022-11-25T15:08:22;8.90;99.90
22984;DHT22;11658;48.908;9.140;2022-11-25T15:11:18;8.90;99.90
22984;DHT22;11658;48.908;9.140;2022-11-25T15:16:20;8.90;99.90
22984;DHT22;11658;48.908;9.140;2022-11-25T15:18:52;8.90;99.90
22984;DHT22;11658;48.908;9.140;2022-11-25T15:21:20;8.90;99.90
22984;DHT22;11658;48.908;9.140;2022-11-25T15:23:47;8.90;99.90
22984;DHT22;11658;48.908;9.140;2022-11-25T15:26:20;8.80;99.90
22984;DHT22;11658;48.908;9.140;2022-11-25T15:28:46;8.80;99.90
22984;DHT22;11658;48.908;9.140;2022-11-25T15:31:17;8.80;99.90
22984;DHT22;11658;48.908;9.140;2022-11-25T15:33:44;8.80;99.90
22984;DHT22;11658;48.908;9.140;2022-11-25T15:36:10;8.80;99.90
22984;DHT22;11658;48.908;9.140;2022-11-25T15:38:39;8.70;99.90
22984;DHT22;11658;48.908;9.140;2022-11-25T15:43:50;8.70;99.90
22984;DHT22;11658;48.908;9.140;2022-11-25T15:46:16;8.70;99.90
22984;DHT22;11658;48.908;9.140;2022-11-25T15:48:45;8.70;99.90
22984;DHT22;11658;48.908;9.140;2022-11-25T15:51:30;8.60;99.90
22984;DHT22;11658;48.908;9.140;2022-11-25T15:54:03;8.60;99.90
22984;DHT22;11658;48.908;9.140;2022-11-25T15:56:32;8.60;99.90
22984;DHT22;11658;48.908;9.140;2022-11-25T15:58:58;8.50;99.90
22984;DHT22;11658;48.908;9.140;2022-11-25T16:01:26;8.40;99.90
22984;DHT22;11658;48.908;9.140;2022-11-25T16:03:52;8.30;99.90
22984;DHT22;11658;48.908;9.140;2022-11-25T16:06:33;8.20;99.90
22984;DHT22;11658;48.908;9.140;2022-11-25T16:09:01;8.10;99.90
22984;DHT22;11658;48.908;9.140;2022-11-25T16:11:29;8.10;99.90
22984;DHT22;11658;48.908;9.140;2022-11-25T16:14:36;8.10;99.90
22984;DHT22;11658;48.908;9.140;2022-11-25T16:17:05;8.10;99.90
22984;DHT22;11658;48.908;9.140;2022-11-25T16:19:42;8.10;99.90
22984;DHT22;11658;48.908;9.140;2022-11-25T16:22:17;8.10;99.90
22984;DHT22;11658;48.908;9.140;2022-11-25T16:24:52;8.20;99.90
22984;DHT22;11658;48.908;9.140;2022-11-25T16:29:54;8.30;99.90
22984;DHT22;11658;48.908;9.140;2022-11-25T16:32:25;8.40;99.90
22984;DHT22;11658;48.908;9.140;2022-11-25T16:34:51;8.40;99.90
22984;DHT22;11658;48.908;9.140;2022-11-25T16:37:17;8.30;99.90
22984;DHT22;11658;48.908;9.140;2022-11-25T16:39:42;8.30;99.90
22984;DHT22;11658;48.908;9.140;2022-11-25T16:42:16;8.30;99.90
22984;DHT22;11658;48.908;9.140;2022-11-25T16:44:45;8.30;99.90
22984;DHT22;11658;48.908;9.140;2022-11-25T16:47:12;8.40;99.90
22984;DHT22;11658;48.908;9.140;2022-11-25T16:49:38;8.30;99.90
22984;DHT22;11658;48.908;9.140;2022-11-25T16:52:03;8.30;99.90
22984;DHT22;11658;48.908;9.140;2022-11-25T16:54:29;8.20;99.90
22984;DHT22;11658;48.908;9.140;2022-11-25T16:56:55;8.20;99.90
22984;DHT22;11658;48.908;9.140;2022-11-25T16:59:36;8.10;99.90
22984;DHT22;11658;48.908;9.140;2022-11-25T17:02:07;8.10;99.90
22984;DHT22;11658;48.908;9.140;2022-11-25T17:04:37;8.10;99.90
22984;DHT22;11658;48.908;9.140;2022-11-25T17:07:09;8.10;99.90
22984;DHT22;11658;48.908;9.140;2022-11-25T17:09:34;8.00;99.90
22984;DHT22;11658;48.908;9.140;2022-11-25T17:12:00;8.00;99.90
22984;DHT22;11658;48.908;9.140;2022-11-25T17:14:30;7.80;99.90
22984;DHT22;11658;48.908;9.140;2022-11-25T17:16:58;7.70;99.90
22984;DHT22;11658;48.908;9.140;2022-11-25T17:19:24;7.60;99.90
22984;DHT22;11658;48.908;9.140;2022-11-25T17:21:50;7.60;99.90
22984;DHT22;11658;48.908;9.140;2022-11-25T17:24:18;7.50;99.90
22984;DHT22;11658;48.908;9.140;2022-11-25T17:26:47;7.60;99.90
22984;DHT22;11658;48.908;9.140;2022-11-25T17:29:17;7.60;99.90
22984;DHT22;11658;48.908;9.140;2022-11-25T17:31:43;7.60;99.90
22984;DHT22;11658;48.908;9.140;2022-11-25T17:34:14;7.60;99.90
22984;DHT22;11658;48.908;9.140;2022-11-25T17:36:41;7.50;99.90
22984;DHT22;11658;48.908;9.140;2022-11-25T17:39:09;7.50;99.90
22984;DHT22;11658;48.908;9.140;2022-11-25T17:41:35;7.60;99.90
22984;DHT22;11658;48.908;9.140;2022-11-25T17:44:01;7.50;99.90
22984;DHT22;11658;48.908;9.140;2022-11-25T17:46:27;7.50;99.90
22984;DHT22;11658;48.908;9.140;2022-11-25T17:48:53;7.50;99.90
22984;DHT22;11658;48.908;9.140;2022-11-25T17:51:19;7.40;99.90
22984;DHT22;11658;48.908;9.140;2022-11-25T17:53:45;7.50;99.90
22984;DHT22;11658;48.908;9.140;2022-11-25T17:56:28;7.50;99.90
22984;DHT22;11658;48.908;9.140;2022-11-25T17:59:00;7.50;99.90
22984;DHT22;11658;48.908;9.140;2022-11-25T18:01:26;7.50;99.90
22984;DHT22;11658;48.908;9.140;2022-11-25T18:03:52;7.50;99.90
22984;DHT22;11658;48.908;9.140;2022-11-25T18:06:18;7.50;99.90
22984;DHT22;11658;48.908;9.140;2022-11-25T18:08:44;7.50;99.90
22984;DHT22;11658;48.908;9.140;2022-11-25T18:11:14;7.40;99.90
22984;DHT22;11658;48.908;9.140;2022-11-25T18:13:40;7.40;99.90
22984;DHT22;11658;48.908;9.140;2022-11-25T18:16:08;7.40;99.90
22984;DHT22;11658;48.908;9.140;2022-11-25T18:18:33;7.50;99.90
22984;DHT22;11658;48.908;9.140;2022-11-25T18:20:59;7.50;99.90
22984;DHT22;11658;48.908;9.140;2022-11-25T18:23:25;7.50;99.90
22984;DHT22;11658;48.908;9.140;2022-11-25T18:25:51;7.50;99.90
22984;DHT22;11658;48.908;9.140;2022-11-25T18:28:20;7.60;99.90
22984;DHT22;11658;48.908;9.140;2022-11-25T18:30:47;7.60;99.90
22984;DHT22;11658;48.908;9.140;2022-11-25T18:33:15;7.50;99.90
22984;DHT22;11658;48.908;9.140;2022-11-25T18:35:42;7.50;99.90
22984;DHT22;11658;48.908;9.140;2022-11-25T18:38:09;7.40;99.90
22984;DHT22;11658;48.908;9.140;2022-11-25T18:40:36;7.50;99.90
22984;DHT22;11658;48.908;9.140;2022-11-25T18:43:05;7.40;99.90
22984;DHT22;11658;48.908;9.140;2022-11-25T18:45:32;7.50;99.90
22984;DHT22;11658;48.908;9.140;2022-11-25T18:47:59;7.40;99.90
22984;DHT22;11658;48.908;9.140;2022-11-25T18:50:25;7.40;99.90
22984;DHT22;11658;48.908;9.140;2022-11-25T18:52:52;7.50;99.90
22984;DHT22;11658;48.908;9.140;2022-11-25T18:55:19;7.50;99.90
22984;DHT22;11658;48.908;9.140;2022-11-25T18:57:48;7.50;99.90
22984;DHT22;11658;48.908;9.140;2022-11-25T19:00:24;7.40;99.90
22984;DHT22;11658;48.908;9.140;2022-11-25T19:02:53;7.40;99.90
22984;DHT22;11658;48.908;9.140;2022-11-25T19:07:45;7.50;99.90
22984;DHT22;11658;48.908;9.140;2022-11-25T19:10:12;7.50;99.90
22984;DHT22;11658;48.908;9.140;2022-11-25T19:12:38;7.50;99.90
22984;DHT22;11658;48.908;9.140;2022-11-25T19:15:05;7.60;99.90
22984;DHT22;11658;48.908;9.140;2022-11-25T19:17:31;7.60;99.90
22984;DHT22;11658;48.908;9.140;2022-11-25T19:19:56;7.50;99.90
22984;DHT22;11658;48.908;9.140;2022-11-25T19:22:22;7.50;99.90
22984;DHT22;11658;48.908;9.140;2022-11-25T19:24:49;7.50;99.90
22984;DHT22;11658;48.908;9.140;2022-11-25T19:27:18;7.60;99.90
22984;DHT22;11658;48.908;9.140;2022-11-25T19:29:46;7.60;99.90
22984;DHT22;11658;48.908;9.140;2022-11-25T19:32:24;7.50;99.90
22984;DHT22;11658;48.908;9.140;2022-11-25T19:34:55;7.50;99.90
22984;DHT22;11658;48.908;9.140;2022-11-25T19:37:22;7.50;99.90
22984;DHT22;11658;48.908;9.140;2022-11-25T19:39:51;7.50;99.90
22984;DHT22;11658;48.908;9.140;2022-11-25T19:42:17;7.50;99.90
22984;DHT22;11658;48.908;9.140;2022-11-25T19:44:44;7.50;99.90
22984;DHT22;11658;48.908;9.140;2022-11-25T19:47:23;7.40;99.90
22984;DHT22;11658;48.908;9.140;2022-11-25T19:49:50;7.50;99.90
22984;DHT22;11658;48.908;9.140;2022-11-25T19:52:29;7.40;99.90
22984;DHT22;11658;48.908;9.140;2022-11-25T19:54:56;7.30;99.90
22984;DHT22;11658;48.908;9.140;2022-11-25T19:57:23;7.30;99.90
22984;DHT22;11658;48.908;9.140;2022-11-25T19:59:49;7.20;99.90
22984;DHT22;11658;48.908;9.140;2022-11-25T20:02:20;7.20;99.90
22984;DHT22;11658;48.908;9.140;2022-11-25T20:04:48;7.10;99.90
22984;DHT22;11658;48.908;9.140;2022-11-25T20:07:17;7.00;99.90
22984;DHT22;11658;48.908;9.140;2022-11-25T20:09:43;7.00;99.90
22984;DHT22;11658;48.908;9.140;2022-11-25T20:12:25;6.90;99.90
22984;DHT22;11658;48.908;9.140;2022-11-25T20:14:51;6.80;99.90
22984;DHT22;11658;48.908;9.140;2022-11-25T20:17:29;6.70;99.90
22984;DHT22;11658;48.908;9.140;2022-11-25T20:19:58;6.60;99.90
22984;DHT22;11658;48.908;9.140;2022-11-25T20:22:30;6.50;99.90
22984;DHT22;11658;48.908;9.140;2022-11-25T20:25:00;6.50;99.90
22984;DHT22;11658;48.908;9.140;2022-11-25T20:27:27;6.40;99.90
22984;DHT22;11658;48.908;9.140;2022-11-25T20:29:53;6.50;99.90
22984;DHT22;11658;48.908;9.140;2022-11-25T20:32:28;6.40;99.90
22984;DHT22;11658;48.908;9.140;2022-11-25T20:34:55;6.30;99.90
22984;DHT22;11658;48.908;9.140;2022-11-25T20:37:21;6.20;99.90
22984;DHT22;11658;48.908;9.140;2022-11-25T20:39:55;6.10;99.90
22984;DHT22;11658;48.908;9.140;2022-11-25T20:42:21;6.10;99.90
22984;DHT22;11658;48.908;9.140;2022-11-25T20:44:47;6.10;99.90
22984;DHT22;11658;48.908;9.140;2022-11-25T20:47:16;6.10;99.90
22984;DHT22;11658;48.908;9.140;2022-11-25T20:49:43;6.10;99.90
22984;DHT22;11658;48.908;9.140;2022-11-25T20:52:28;6.20;99.90
22984;DHT22;11658;48.908;9.140;2022-11-25T20:54:55;6.20;99.90
22984;DHT22;11658;48.908;9.140;2022-11-25T20:57:21;6.30;99.90
22984;DHT22;11658;48.908;9.140;2022-11-25T20:59:47;6.30;99.90
22984;DHT22;11658;48.908;9.140;2022-11-25T21:02:13;6.40;99.90
22984;DHT22;11658;48.908;9.140;2022-11-25T21:04:39;6.30;99.90
22984;DHT22;11658;48.908;9.140;2022-11-25T21:07:09;6.40;99.90
22984;DHT22;11658;48.908;9.140;2022-11-25T21:09:37;6.30;99.90
22984;DHT22;11658;48.908;9.140;2022-11-25T21:12:05;6.30;99.90
22984;DHT22;11658;48.908;9.140;2022-11-25T21:14:31;6.20;99.90
22984;DHT22;11658;48.908;9.140;2022-11-25T21:16:56;6.10;99.90
22984;DHT22;11658;48.908;9.140;2022-11-25T21:19:22;6.10;99.90
22984;DHT22;11658;48.908;9.140;2022-11-25T21:21:49;6.10;99.90
22984;DHT22;11658;48.908;9.140;2022-11-25T21:26:54;6.00;99.90
22984;DHT22;11658;48.908;9.140;2022-11-25T21:29:20;6.00;99.90
22984;DHT22;11658;48.908;9.140;2022-11-25T21:31:46;6.00;99.90
22984;DHT22;11658;48.908;9.140;2022-11-25T21:34:13;6.10;99.90
22984;DHT22;11658;48.908;9.140;2022-11-25T21:36:39;6.10;99.90
22984;DHT22;11658;48.908;9.140;2022-11-25T21:39:07;6.10;99.90
22984;DHT22;11658;48.908;9.140;2022-11-25T21:41:33;6.20;99.90
22984;DHT22;11658;48.908;9.140;2022-11-25T21:43:59;6.20;99.90
22984;DHT22;11658;48.908;9.140;2022-11-25T21:46:25;6.10;99.90
22984;DHT22;11658;48.908;9.140;2022-11-25T21:48:52;6.00;99.90
22984;DHT22;11658;48.908;9.140;2022-11-25T21:51:18;6.10;99.90
22984;DHT22;11658;48.908;9.140;2022-11-25T21:53:49;6.10;99.90
22984;DHT22;11658;48.908;9.140;2022-11-25T21:56:26;6.10;99.90
22984;DHT22;11658;48.908;9.140;2022-11-25T21:58:53;6.10;99.90
22984;DHT22;11658;48.908;9.140;2022-11-25T22:01:20;6.20;99.90
22984;DHT22;11658;48.908;9.140;2022-11-25T22:03:46;6.30;99.90
22984;DHT22;11658;48.908;9.140;2022-11-25T22:06:26;6.30;99.90
22984;DHT22;11658;48.908;9.140;2022-11-25T22:08:52;6.40;99.90
22984;DHT22;11658;48.908;9.140;2022-11-25T22:11:25;6.50;99.90
22984;DHT22;11658;48.908;9.140;2022-11-25T22:13:53;6.60;99.90
22984;DHT22;11658;48.908;9.140;2022-11-25T22:16:27;6.60;99.90